createdAt,value
2024-03-02T00:02:30.073Z,79.69
2024-03-02T00:05:00.741Z,79.31
2024-03-02T00:07:32.767Z,79.55
2024-03-02T00:10:06.486Z,79.74
2024-03-02T00:12:37.922Z,80.13
2024-03-02T00:15:22.949Z,80.16
2024-03-02T00:17:57.358Z,80.14
2024-03-02T00:20:29.069Z,80.17
2024-03-02T00:23:05.229Z,79.85
2024-03-02T00:25:43.028Z,79.92
2024-03-02T00:28:21.754Z,79.70
2024-03-02T00:31:12.950Z,79.76
2024-03-02T00:33:45.666Z,79.59
2024-03-02T00:36:24.049Z,79.53
2024-03-02T00:38:56.158Z,79.55
2024-03-02T00:41:29.928Z,80.12
2024-03-02T00:44:06.742Z,81.05
2024-03-02T00:46:39.256Z,81.27
2024-03-02T00:49:21.049Z,80.97
2024-03-02T00:51:53.024Z,80.81
2024-03-02T00:54:25.428Z,80.88
2024-03-02T00:56:57.506Z,80.77
2024-03-02T00:59:28.361Z,80.93
2024-03-02T01:01:59.037Z,80.87
2024-03-02T01:04:29.824Z,80.34
2024-03-02T01:07:00.642Z,80.88
2024-03-02T01:09:31.450Z,80.72
2024-03-02T01:12:02.061Z,80.72
2024-03-02T01:14:32.710Z,80.76
2024-03-02T01:17:04.819Z,80.43
2024-03-02T01:19:35.422Z,80.23
2024-03-02T01:22:06.209Z,79.89
2024-03-02T01:24:36.847Z,80.33
2024-03-02T01:27:07.714Z,80.03
2024-03-02T01:29:38.321Z,80.64
2024-03-02T01:32:09.997Z,81.31
2024-03-02T01:34:40.675Z,81.35
2024-03-02T01:37:11.868Z,81.49
2024-03-02T01:39:42.593Z,81.20
2024-03-02T01:42:13.359Z,80.99
2024-03-02T01:44:44.419Z,80.63
2024-03-02T01:47:15.507Z,80.32
2024-03-02T01:49:46.468Z,79.95
2024-03-02T01:52:17.117Z,80.88
2024-03-02T01:54:47.837Z,80.99
2024-03-02T01:57:18.825Z,81.23
2024-03-02T01:59:49.800Z,81.15
2024-03-02T02:02:21.229Z,80.63
2024-03-02T02:04:51.936Z,81.05
2024-03-02T02:07:22.562Z,81.40
2024-03-02T02:09:53.335Z,81.22
2024-03-02T02:12:24.089Z,80.70
2024-03-02T02:14:54.789Z,80.93
2024-03-02T02:17:25.461Z,80.90
2024-03-02T02:19:56.036Z,80.88
2024-03-02T02:22:26.635Z,81.25
2024-03-02T02:24:57.508Z,81.67
2024-03-02T02:27:28.110Z,81.61
2024-03-02T02:29:58.751Z,81.50
2024-03-02T02:32:29.529Z,81.24
2024-03-02T02:35:00.437Z,81.43
2024-03-02T02:37:31.121Z,81.28
2024-03-02T02:40:01.889Z,81.55
2024-03-02T02:42:32.602Z,81.50
2024-03-02T02:45:03.339Z,81.06
2024-03-02T02:47:36.084Z,81.12
2024-03-02T02:50:09.486Z,81.19
2024-03-02T02:52:41.780Z,81.20
2024-03-02T02:55:14.612Z,80.69
2024-03-02T02:57:46.787Z,80.72
2024-03-02T03:00:21.108Z,80.69
2024-03-02T03:02:52.893Z,80.82
2024-03-02T03:05:24.135Z,80.79
2024-03-02T03:07:54.830Z,80.75
2024-03-02T03:10:27.650Z,80.53
2024-03-02T03:12:58.480Z,80.61
2024-03-02T03:15:29.174Z,80.24
2024-03-02T03:17:59.899Z,80.48
2024-03-02T03:20:30.578Z,81.18
2024-03-02T03:23:01.200Z,81.04
2024-03-02T03:25:31.803Z,81.07
2024-03-02T03:28:04.292Z,80.70
2024-03-02T03:30:35.058Z,80.64
2024-03-02T03:33:07.025Z,80.38
2024-03-02T03:35:38.645Z,80.09
2024-03-02T03:38:09.249Z,80.60
2024-03-02T03:40:39.936Z,80.86
2024-03-02T03:43:10.621Z,81.06
2024-03-02T03:45:41.354Z,80.38
2024-03-02T03:48:12.177Z,80.26
2024-03-02T03:50:42.942Z,80.77
2024-03-02T03:53:13.604Z,81.12
2024-03-02T03:55:44.279Z,81.62
2024-03-02T03:58:15.444Z,81.48
2024-03-02T04:00:46.128Z,80.75
2024-03-02T04:03:16.862Z,81.00
2024-03-02T04:05:47.482Z,81.34
2024-03-02T04:08:18.248Z,81.44
2024-03-02T04:10:48.969Z,81.96
2024-03-02T04:13:19.828Z,82.02
2024-03-02T04:15:50.527Z,81.87
2024-03-02T04:18:21.261Z,80.75
2024-03-02T04:20:54.110Z,80.90
2024-03-02T04:23:25.062Z,81.55
2024-03-02T04:25:55.669Z,81.11
2024-03-02T04:28:26.331Z,80.24
2024-03-02T04:30:57.100Z,80.93
2024-03-02T04:33:27.934Z,81.38
2024-03-02T04:35:58.800Z,81.51
2024-03-02T04:38:30.024Z,80.45
2024-03-02T04:41:00.664Z,80.92
2024-03-02T04:43:31.325Z,81.57
2024-03-02T04:46:02.402Z,81.70
2024-03-02T04:48:33.504Z,82.03
2024-03-02T04:51:04.242Z,81.84
2024-03-02T04:53:34.868Z,81.83
2024-03-02T04:56:28.603Z,81.64
2024-03-02T04:58:59.180Z,80.99
2024-03-02T05:01:29.848Z,80.36
2024-03-02T05:04:00.690Z,80.34
2024-03-02T05:06:32.224Z,81.02
2024-03-02T05:09:03.006Z,81.58
2024-03-02T05:11:54.326Z,82.46
2024-03-02T05:14:24.974Z,82.06
2024-03-02T05:16:55.642Z,82.10
2024-03-02T05:19:26.423Z,82.16
2024-03-02T05:21:57.148Z,82.06
2024-03-02T05:24:29.461Z,82.15
2024-03-02T05:27:00.701Z,81.82
2024-03-02T05:29:31.364Z,81.23
2024-03-02T05:32:01.994Z,81.52
2024-03-02T05:34:34.077Z,81.79
2024-03-02T05:37:04.756Z,81.64
2024-03-02T05:39:35.469Z,81.38
2024-03-02T05:42:07.018Z,81.18
2024-03-02T05:44:37.694Z,80.94
2024-03-02T05:47:09.903Z,81.13
2024-03-02T05:49:40.803Z,80.92
2024-03-02T05:52:11.903Z,80.56
2024-03-02T05:54:42.681Z,80.76
2024-03-02T05:57:27.302Z,80.67
2024-03-02T05:59:58.697Z,80.32
2024-03-02T06:02:29.313Z,80.28
2024-03-02T06:05:00.084Z,80.07
2024-03-02T06:07:30.676Z,80.21
2024-03-02T06:10:01.541Z,80.01
2024-03-02T06:12:34.578Z,79.73
2024-03-02T06:15:06.096Z,78.99
2024-03-02T06:17:38.738Z,80.02
2024-03-02T06:20:11.814Z,80.29
2024-03-02T06:22:42.561Z,80.20
2024-03-02T06:25:14.242Z,80.13
2024-03-02T06:27:44.969Z,80.34
2024-03-02T06:30:16.782Z,80.09
2024-03-02T06:32:47.486Z,80.15
2024-03-02T06:35:18.312Z,80.37
2024-03-02T06:37:49.010Z,80.69
2024-03-02T06:40:20.022Z,81.11
2024-03-02T06:42:50.747Z,80.89
2024-03-02T06:45:21.441Z,80.89
2024-03-02T06:47:52.073Z,81.58
2024-03-02T06:50:22.684Z,81.39
2024-03-02T06:52:53.533Z,81.56
2024-03-02T06:55:25.503Z,81.20
2024-03-02T06:57:56.215Z,82.01
2024-03-02T07:00:26.933Z,82.05
2024-03-02T07:02:57.632Z,82.21
2024-03-02T07:05:28.312Z,81.86
2024-03-02T07:07:59.010Z,81.80
2024-03-02T07:10:29.646Z,81.72
2024-03-02T07:13:00.821Z,81.26
2024-03-02T07:15:45.577Z,81.39
2024-03-02T07:18:18.894Z,81.34
2024-03-02T07:20:50.780Z,81.20
2024-03-02T07:23:24.391Z,80.88
2024-03-02T07:28:29.861Z,80.76
2024-03-02T07:31:04.099Z,81.09
2024-03-02T07:33:35.058Z,80.79
2024-03-02T07:36:06.707Z,80.53
2024-03-02T07:38:37.609Z,79.89
2024-03-02T07:41:08.680Z,80.07
2024-03-02T07:43:39.435Z,80.27
2024-03-02T07:46:10.295Z,80.25
2024-03-02T07:48:41.030Z,80.45
2024-03-02T07:51:11.784Z,80.53
2024-03-02T07:53:42.491Z,80.27
2024-03-02T07:56:13.163Z,81.35
2024-03-02T07:58:43.774Z,80.58
2024-03-02T08:01:14.505Z,79.57
2024-03-02T08:03:49.092Z,78.51
2024-03-02T08:06:21.853Z,77.22
2024-03-02T08:08:52.550Z,76.61
2024-03-02T08:11:23.370Z,76.20
2024-03-02T08:13:55.958Z,75.95
2024-03-02T08:16:26.908Z,75.59
2024-03-02T08:18:59.196Z,75.48
2024-03-02T08:21:31.753Z,75.91
2024-03-02T08:24:02.774Z,76.11
2024-03-02T08:26:33.509Z,76.21
2024-03-02T08:29:04.768Z,76.30
2024-03-02T08:31:36.926Z,76.39
2024-03-02T08:34:09.058Z,76.43
2024-03-02T08:36:40.349Z,76.43
2024-03-02T08:39:16.609Z,76.66
2024-03-02T08:41:48.048Z,76.63
2024-03-02T08:44:19.276Z,76.94
2024-03-02T08:46:49.972Z,76.83
2024-03-02T08:49:20.676Z,76.96
2024-03-02T08:51:55.808Z,76.83
2024-03-02T08:54:26.990Z,76.89
2024-03-02T08:56:57.857Z,76.73
2024-03-02T08:59:29.030Z,76.77
2024-03-02T09:01:59.994Z,76.79
2024-03-02T09:04:34.894Z,76.66
2024-03-02T09:07:06.544Z,76.68
2024-03-02T09:09:37.241Z,76.57
2024-03-02T09:12:09.039Z,76.27
2024-03-02T09:14:40.035Z,76.05
2024-03-02T09:17:11.927Z,75.27
2024-03-02T09:19:43.257Z,75.05
2024-03-02T09:22:14.350Z,75.21
2024-03-02T09:24:44.999Z,74.75
2024-03-02T09:27:15.797Z,74.84
2024-03-02T09:29:46.442Z,74.65
2024-03-02T09:32:17.422Z,74.67
2024-03-02T09:34:49.407Z,74.77
2024-03-02T09:37:20.165Z,74.56
2024-03-02T09:39:50.994Z,74.41
2024-03-02T09:42:24.487Z,74.51
2024-03-02T09:44:56.366Z,74.51
2024-03-02T09:47:27.272Z,74.27
2024-03-02T09:49:58.058Z,74.26
2024-03-02T09:52:29.214Z,74.02
2024-03-02T09:55:00.058Z,73.72
2024-03-02T09:57:31.053Z,73.61
2024-03-02T10:00:01.837Z,73.30
2024-03-02T10:02:32.629Z,73.91
2024-03-02T10:05:05.265Z,73.36
2024-03-02T10:07:36.095Z,73.39
2024-03-02T10:10:17.391Z,73.18
2024-03-02T10:12:48.047Z,73.10
2024-03-02T10:15:27.426Z,73.26
2024-03-02T10:17:58.871Z,73.27
2024-03-02T10:20:30.867Z,73.28
2024-03-02T10:23:13.972Z,73.51
2024-03-02T10:25:52.110Z,73.56
2024-03-02T10:28:29.347Z,73.59
2024-03-02T10:31:01.201Z,73.24
2024-03-02T10:33:32.150Z,72.89
2024-03-02T10:36:02.916Z,72.58
2024-03-02T10:38:34.015Z,72.37
2024-03-02T10:41:05.614Z,72.28
2024-03-02T10:43:36.419Z,71.79
2024-03-02T10:46:07.492Z,71.62
2024-03-02T10:48:41.886Z,71.28
2024-03-02T10:51:12.695Z,71.21
2024-03-02T10:53:43.437Z,70.64
2024-03-02T10:56:18.927Z,70.39
2024-03-02T10:58:53.202Z,69.94
2024-03-02T11:01:24.655Z,69.97
2024-03-02T11:03:56.173Z,70.06
2024-03-02T11:06:29.007Z,69.82
2024-03-02T11:09:04.301Z,69.46
2024-03-02T11:11:38.791Z,69.15
2024-03-02T11:14:15.507Z,69.17
2024-03-02T11:16:47.229Z,69.18
2024-03-02T11:19:19.213Z,68.92
2024-03-02T11:21:50.622Z,68.08
2024-03-02T11:24:38.915Z,68.00
2024-03-02T11:27:13.649Z,67.61
2024-03-02T11:29:50.699Z,67.18
2024-03-02T11:32:24.822Z,67.34
2024-03-02T11:34:56.544Z,66.52
2024-03-02T11:37:28.499Z,65.89
2024-03-02T11:39:59.301Z,65.69
2024-03-02T11:42:30.103Z,65.66
2024-03-02T11:45:01.670Z,65.66
2024-03-02T11:47:38.585Z,64.95
2024-03-02T11:50:11.089Z,65.11
2024-03-02T11:52:42.713Z,65.29
2024-03-02T11:55:13.766Z,65.27
2024-03-02T11:57:44.753Z,64.75
2024-03-02T12:00:22.377Z,65.16
2024-03-02T12:03:04.311Z,65.37
2024-03-02T12:05:36.103Z,65.09
2024-03-02T12:08:08.681Z,64.80
2024-03-02T12:10:40.071Z,64.65
2024-03-02T12:13:13.038Z,64.85
2024-03-02T12:15:43.964Z,65.11
2024-03-02T12:18:14.723Z,64.98
2024-03-02T12:20:45.469Z,64.81
2024-03-02T12:23:17.148Z,64.63
2024-03-02T12:25:49.367Z,64.54
2024-03-02T12:28:21.366Z,64.34
2024-03-02T12:30:53.830Z,64.25
2024-03-02T12:33:25.320Z,64.60
2024-03-02T12:35:56.172Z,64.59
2024-03-02T12:38:28.571Z,64.77
2024-03-02T12:40:59.705Z,64.88
2024-03-02T12:43:34.491Z,64.98
2024-03-02T12:46:05.587Z,64.99
2024-03-02T12:48:36.683Z,64.86
2024-03-02T12:51:08.065Z,64.71
2024-03-02T12:53:38.913Z,64.65
2024-03-02T12:56:11.589Z,64.45
2024-03-02T12:58:44.251Z,63.88
2024-03-02T13:01:20.258Z,63.84
2024-03-02T13:03:52.647Z,63.63
2024-03-02T13:06:23.925Z,63.19
2024-03-02T13:08:54.763Z,62.86
2024-03-02T13:11:26.570Z,62.74
2024-03-02T13:13:57.336Z,62.59
2024-03-02T13:16:32.829Z,62.44
2024-03-02T13:19:09.242Z,61.68
2024-03-02T13:21:40.315Z,61.93
2024-03-02T13:24:11.324Z,62.25
2024-03-02T13:26:42.517Z,62.26
2024-03-02T13:29:13.217Z,61.88
2024-03-02T13:31:43.894Z,61.76
2024-03-02T13:34:14.834Z,61.71
2024-03-02T13:36:45.668Z,61.58
2024-03-02T13:39:16.669Z,61.52
2024-03-02T13:41:53.761Z,61.35
2024-03-02T13:44:24.772Z,61.26
2024-03-02T13:46:55.947Z,61.17
2024-03-02T13:49:29.742Z,61.51
2024-03-02T13:52:01.592Z,61.52
2024-03-02T13:54:32.998Z,61.40
2024-03-02T13:57:03.742Z,61.45
2024-03-02T13:59:34.511Z,61.73
2024-03-02T14:02:06.316Z,61.64
2024-03-02T14:04:38.115Z,61.60
2024-03-02T14:07:09.994Z,61.73
2024-03-02T14:09:40.898Z,61.53
2024-03-02T14:12:14.478Z,61.77
2024-03-02T14:14:45.633Z,62.00
2024-03-02T14:17:16.924Z,61.92
2024-03-02T14:19:49.142Z,62.21
2024-03-02T14:22:22.224Z,62.54
2024-03-02T14:24:53.136Z,62.46
2024-03-02T14:27:32.530Z,62.64
2024-03-02T14:30:16.435Z,62.63
2024-03-02T14:32:47.101Z,63.21
2024-03-02T14:35:17.991Z,63.37
2024-03-02T14:37:48.846Z,63.48
2024-03-02T14:40:19.684Z,63.49
2024-03-02T14:42:50.511Z,63.62
2024-03-02T14:45:21.206Z,63.59
2024-03-02T14:47:52.183Z,63.41
2024-03-02T14:50:23.038Z,63.47
2024-03-02T14:52:53.893Z,63.27
2024-03-02T14:55:24.823Z,63.33
2024-03-02T14:57:55.663Z,63.60
2024-03-02T15:00:26.448Z,63.58
2024-03-02T15:02:57.454Z,63.63
2024-03-02T15:05:28.187Z,63.66
2024-03-02T15:08:00.470Z,63.80
2024-03-02T15:10:31.213Z,63.64
2024-03-02T15:13:02.746Z,63.57
2024-03-02T15:15:33.614Z,63.42
2024-03-02T15:18:06.548Z,63.47
2024-03-02T15:20:37.789Z,63.58
2024-03-02T15:23:08.694Z,63.66
2024-03-02T15:25:39.696Z,63.77
2024-03-02T15:28:10.709Z,63.77
2024-03-02T15:30:42.639Z,63.77
2024-03-02T15:33:13.458Z,63.76
2024-03-02T15:35:44.749Z,63.52
2024-03-02T15:38:24.962Z,63.51
2024-03-02T15:41:03.558Z,63.56
2024-03-02T15:43:37.059Z,63.88
2024-03-02T15:46:08.031Z,63.82
2024-03-02T15:48:39.244Z,64.10
2024-03-02T15:51:09.970Z,64.05
2024-03-02T15:53:41.128Z,64.08
2024-03-02T15:56:12.261Z,64.13
2024-03-02T15:58:43.309Z,64.37
2024-03-02T16:01:14.300Z,64.29
2024-03-02T16:03:45.113Z,64.39
2024-03-02T16:06:16.002Z,64.49
2024-03-02T16:08:46.738Z,64.74
2024-03-02T16:11:17.438Z,64.86
2024-03-02T16:13:48.316Z,64.88
2024-03-02T16:16:19.485Z,64.95
2024-03-02T16:18:50.401Z,65.01
2024-03-02T16:21:21.411Z,65.34
2024-03-02T16:23:52.147Z,65.29
2024-03-02T16:26:22.862Z,65.16
2024-03-02T16:28:53.665Z,65.14
2024-03-02T16:31:25.771Z,65.38
2024-03-02T16:33:56.559Z,65.34
2024-03-02T16:36:29.054Z,65.37
2024-03-02T16:38:59.808Z,65.29
2024-03-02T16:41:34.046Z,65.38
2024-03-02T16:44:07.211Z,65.26
2024-03-02T16:46:39.074Z,65.47
2024-03-02T16:49:10.245Z,65.62
2024-03-02T16:51:44.665Z,65.68
2024-03-02T16:54:15.629Z,65.68
2024-03-02T16:56:47.020Z,65.62
2024-03-02T16:59:17.745Z,65.62
2024-03-02T17:01:48.499Z,65.69
2024-03-02T17:04:21.101Z,65.59
2024-03-02T17:06:52.144Z,65.91
2024-03-02T17:09:22.973Z,66.05
2024-03-02T17:11:53.691Z,66.07
2024-03-02T17:14:25.539Z,66.15
2024-03-02T17:16:56.720Z,66.28
2024-03-02T17:19:27.451Z,66.33
2024-03-02T17:21:58.084Z,66.23
2024-03-02T17:24:28.797Z,66.35
2024-03-02T17:26:59.739Z,66.47
2024-03-02T17:29:30.532Z,66.43
2024-03-02T17:32:01.293Z,66.51
2024-03-02T17:34:31.929Z,66.64
2024-03-02T17:37:02.598Z,66.72
2024-03-02T17:39:33.347Z,66.80
2024-03-02T17:42:04.026Z,66.83
2024-03-02T17:44:34.673Z,66.87
2024-03-02T17:47:06.021Z,66.98
2024-03-02T17:49:36.741Z,67.12
2024-03-02T17:52:08.511Z,67.36
2024-03-02T17:54:39.365Z,67.45
2024-03-02T17:57:09.992Z,67.48
2024-03-02T17:59:40.628Z,67.63
2024-03-02T18:02:11.493Z,67.77
2024-03-02T18:04:43.208Z,67.72
2024-03-02T18:07:14.017Z,67.83
2024-03-02T18:09:44.801Z,67.95
2024-03-02T18:12:15.458Z,67.99
2024-03-02T18:14:46.395Z,68.06
2024-03-02T18:17:17.224Z,67.99
2024-03-02T18:19:48.364Z,68.09
2024-03-02T18:22:19.201Z,68.27
2024-03-02T18:24:49.958Z,68.32
2024-03-02T18:27:20.680Z,68.45
2024-03-02T18:29:51.391Z,68.38
2024-03-02T18:32:22.118Z,68.53
2024-03-02T18:34:52.999Z,68.56
2024-03-02T18:37:24.071Z,68.61
2024-03-02T18:39:54.939Z,68.71
2024-03-02T18:42:26.710Z,68.78
2024-03-02T18:44:57.430Z,68.90
2024-03-02T18:47:28.463Z,68.86
2024-03-02T18:50:00.041Z,68.85
2024-03-02T18:52:34.466Z,68.90
2024-03-02T18:55:05.513Z,69.09
2024-03-02T18:57:36.453Z,69.11
2024-03-02T19:00:13.536Z,69.37
2024-03-02T19:02:45.068Z,73.27
2024-03-02T19:05:15.989Z,78.18
2024-03-02T19:07:46.797Z,78.46
2024-03-02T19:10:17.609Z,74.38
2024-03-02T19:12:48.968Z,72.78
2024-03-02T19:15:20.173Z,71.76
2024-03-02T19:17:50.910Z,71.07
2024-03-02T19:20:21.735Z,70.11
2024-03-02T19:22:54.302Z,69.77
2024-03-02T19:25:25.922Z,69.17
2024-03-02T19:27:57.325Z,67.74
2024-03-02T19:30:28.499Z,67.50
2024-03-02T19:32:59.233Z,67.59
2024-03-02T19:35:30.055Z,67.85
2024-03-02T19:38:00.808Z,67.91
2024-03-02T19:40:31.507Z,68.11
2024-03-02T19:43:02.400Z,68.37
2024-03-02T19:45:33.273Z,68.49
2024-03-02T19:48:04.548Z,68.77
2024-03-02T19:50:35.210Z,69.02
2024-03-02T19:53:06.488Z,69.35
2024-03-02T19:55:38.972Z,69.85
2024-03-02T19:58:10.162Z,70.09
2024-03-02T20:00:41.619Z,70.42
2024-03-02T20:03:12.644Z,70.58
2024-03-02T20:05:43.465Z,70.80
2024-03-02T20:08:14.370Z,70.77
2024-03-02T20:10:47.902Z,70.95
2024-03-02T20:13:18.964Z,70.91
2024-03-02T20:15:50.138Z,71.05
2024-03-02T20:18:20.908Z,70.91
2024-03-02T20:20:51.671Z,71.10
2024-03-02T20:23:22.583Z,71.13
2024-03-02T20:25:55.435Z,71.29
2024-03-02T20:28:26.756Z,71.31
2024-03-02T20:30:57.538Z,71.42
2024-03-02T20:33:28.276Z,71.53
2024-03-02T20:35:58.939Z,71.50
2024-03-02T20:38:29.772Z,71.64
2024-03-02T20:41:00.565Z,71.53
2024-03-02T20:43:31.425Z,71.47
2024-03-02T20:46:07.563Z,71.68
2024-03-02T20:48:38.772Z,72.07
2024-03-02T20:51:09.907Z,71.91
2024-03-02T20:53:40.647Z,72.18
2024-03-02T20:56:11.551Z,72.19
2024-03-02T20:58:42.410Z,72.24
2024-03-02T21:01:14.249Z,72.12
2024-03-02T21:03:46.278Z,72.52
2024-03-02T21:06:17.137Z,72.87
2024-03-02T21:08:47.812Z,73.07
2024-03-02T21:11:19.634Z,73.05
2024-03-02T21:13:50.549Z,73.27
2024-03-02T21:16:21.424Z,73.20
2024-03-02T21:18:52.213Z,73.09
2024-03-02T21:21:22.903Z,73.28
2024-03-02T21:23:53.698Z,73.64
2024-03-02T21:26:24.437Z,73.72
2024-03-02T21:28:55.099Z,74.06
2024-03-02T21:31:25.757Z,73.71
2024-03-02T21:33:56.399Z,73.88
2024-03-02T21:36:27.061Z,73.81
2024-03-02T21:38:57.720Z,73.71
2024-03-02T21:41:28.366Z,74.03
2024-03-02T21:43:59.242Z,74.22
2024-03-02T21:46:29.987Z,74.51
2024-03-02T21:49:00.666Z,74.52
2024-03-02T21:51:31.425Z,74.91
2024-03-02T21:54:02.051Z,75.07
2024-03-02T21:56:32.710Z,75.08
2024-03-02T21:59:03.368Z,76.01
2024-03-02T22:01:34.153Z,77.37
2024-03-02T22:04:04.893Z,79.35
2024-03-02T22:06:35.589Z,79.50
2024-03-02T22:09:06.648Z,77.62
2024-03-02T22:11:37.474Z,76.64
2024-03-02T22:14:08.558Z,76.45
2024-03-02T22:16:39.264Z,76.11
2024-03-02T22:19:10.569Z,75.95
2024-03-02T22:21:41.377Z,75.75
2024-03-02T22:24:15.910Z,75.25
2024-03-02T22:26:46.645Z,75.11
2024-03-02T22:29:17.377Z,75.31
2024-03-02T22:31:48.041Z,76.10
2024-03-02T22:34:18.745Z,75.12
2024-03-02T22:36:49.559Z,74.61
2024-03-02T22:39:20.231Z,75.07
2024-03-02T22:41:51.800Z,75.58
2024-03-02T22:44:22.541Z,75.49
2024-03-02T22:46:53.465Z,74.91
2024-03-02T22:49:24.134Z,74.94
2024-03-02T22:51:54.929Z,75.80
2024-03-02T22:54:25.565Z,75.34
2024-03-02T22:56:58.211Z,75.76
2024-03-02T22:59:28.896Z,75.39
2024-03-02T23:01:59.667Z,75.43
2024-03-02T23:04:30.428Z,76.32
2024-03-02T23:07:01.180Z,76.56
2024-03-02T23:09:31.930Z,76.60
2024-03-02T23:12:02.669Z,76.71
2024-03-02T23:14:33.376Z,76.55
2024-03-02T23:17:04.250Z,76.36
2024-03-02T23:19:35.351Z,76.13
2024-03-02T23:22:07.311Z,75.86
2024-03-02T23:24:38.193Z,75.58
2024-03-02T23:27:09.105Z,75.51
2024-03-02T23:29:41.314Z,75.28
2024-03-02T23:32:12.645Z,74.89
2024-03-02T23:34:43.391Z,74.87
2024-03-02T23:37:14.402Z,74.84
2024-03-02T23:40:06.802Z,74.44
2024-03-02T23:42:38.134Z,74.45
2024-03-02T23:45:10.119Z,73.96
2024-03-02T23:47:41.166Z,74.00
2024-03-02T23:50:13.111Z,73.52
2024-03-02T23:52:43.816Z,73.86
2024-03-02T23:55:14.583Z,73.81
2024-03-02T23:57:45.265Z,73.82
